MXD831 WMKP-WSSS
Flight info
| Callsign | MXD831 |
|---|---|
| Flight time | 1h 13m |
| Altitude | 33000 |
| Route | BOGUK DCT ANBIK Y507 MAKNA Y511 TOPOR A464 ARAMA DCT TEBUN TEBUN1B |
| Aircraft | B738/M-SDE2E3FGHIRWXY/LB1 |
Departure
| Time | 2026-05-08 19:47 |
|---|---|
| Airport | Penang International Airport (WMKP) |
Arrival
| Time | 2026-05-08 21:00 |
|---|---|
| Airport | Singapore Changi Airport (WSSS) |
| Time | Latitude | Longitude | Altitude | Speed | Heading |
|---|---|---|---|---|---|
| 2026-05-08 19:27 | 5.29195 | 100.26624 | 22 ft | 0 kts | 311° |
| 2026-05-08 19:36 | 5.29194 | 100.26625 | 23 ft | 2 kts | 311° |
| 2026-05-08 19:37 | 5.29177 | 100.26644 | 24 ft | 4 kts | 311° |
| 2026-05-08 19:37 | 5.29161 | 100.26663 | 27 ft | 3 kts | 311° |
| 2026-05-08 19:37 | 5.29143 | 100.26677 | 24 ft | 4 kts | 357° |
| 2026-05-08 19:37 | 5.29121 | 100.26668 | 26 ft | 4 kts | 40° |
| 2026-05-08 19:38 | 5.29113 | 100.26661 | 24 ft | 1 kts | 41° |
| 2026-05-08 19:40 | 5.29113 | 100.26662 | 24 ft | 2 kts | 41° |
| 2026-05-08 19:40 | 5.29148 | 100.26692 | 24 ft | 8 kts | 41° |
| 2026-05-08 19:40 | 5.29187 | 100.26727 | 22 ft | 7 kts | 41° |
| 2026-05-08 19:40 | 5.29224 | 100.26760 | 22 ft | 7 kts | 41° |
| 2026-05-08 19:41 | 5.29259 | 100.26794 | 22 ft | 7 kts | 60° |
| 2026-05-08 19:41 | 5.29246 | 100.26838 | 22 ft | 7 kts | 130° |
| 2026-05-08 19:41 | 5.29206 | 100.26886 | 24 ft | 10 kts | 128° |
| 2026-05-08 19:41 | 5.29203 | 100.26954 | 24 ft | 12 kts | 58° |
| 2026-05-08 19:42 | 5.29276 | 100.27026 | 22 ft | 17 kts | 42° |
| 2026-05-08 19:42 | 5.29380 | 100.27119 | 22 ft | 22 kts | 42° |
| 2026-05-08 19:42 | 5.29498 | 100.27226 | 22 ft | 23 kts | 41° |
| 2026-05-08 19:42 | 5.29616 | 100.27329 | 22 ft | 22 kts | 41° |
| 2026-05-08 19:43 | 5.29727 | 100.27431 | 23 ft | 22 kts | 43° |
| 2026-05-08 19:43 | 5.29842 | 100.27538 | 22 ft | 23 kts | 43° |
| 2026-05-08 19:43 | 5.29956 | 100.27643 | 22 ft | 22 kts | 43° |
| 2026-05-08 19:43 | 5.30067 | 100.27746 | 22 ft | 21 kts | 43° |
| 2026-05-08 19:44 | 5.30171 | 100.27849 | 22 ft | 22 kts | 45° |
| 2026-05-08 19:44 | 5.30282 | 100.27959 | 22 ft | 23 kts | 44° |
| 2026-05-08 19:44 | 5.30396 | 100.28072 | 22 ft | 23 kts | 45° |
| 2026-05-08 19:44 | 5.30511 | 100.28176 | 22 ft | 22 kts | 42° |
| 2026-05-08 19:45 | 5.30623 | 100.28278 | 21 ft | 21 kts | 42° |
| 2026-05-08 19:45 | 5.30731 | 100.28377 | 22 ft | 21 kts | 42° |
| 2026-05-08 19:45 | 5.30835 | 100.28472 | 22 ft | 20 kts | 42° |
| 2026-05-08 19:45 | 5.30906 | 100.28577 | 22 ft | 16 kts | 88° |
| 2026-05-08 19:46 | 5.30864 | 100.28653 | 25 ft | 12 kts | 137° |
| 2026-05-08 19:46 | 5.30806 | 100.28673 | 24 ft | 7 kts | 202° |
| 2026-05-08 19:46 | 5.30573 | 100.28463 | 25 ft | 74 kts | 222° |
| 2026-05-08 19:47 | 5.30014 | 100.27952 | 24 ft | 140 kts | 221° |
| 2026-05-08 19:47 | 5.29473 | 100.27457 | 47 ft | 175 kts | 223° |
| 2026-05-08 19:47 | 5.28543 | 100.26623 | 693 ft | 180 kts | 217° |
| 2026-05-08 19:47 | 5.27434 | 100.25998 | 1391 ft | 192 kts | 210° |
| 2026-05-08 19:48 | 5.26163 | 100.25352 | 1747 ft | 215 kts | 190° |
| 2026-05-08 19:48 | 5.24694 | 100.25587 | 2139 ft | 221 kts | 152° |
| 2026-05-08 19:48 | 5.23348 | 100.26348 | 2651 ft | 224 kts | 151° |
| 2026-05-08 19:48 | 5.21965 | 100.27087 | 3159 ft | 227 kts | 153° |
| 2026-05-08 19:49 | 5.20549 | 100.27790 | 3702 ft | 229 kts | 154° |
| 2026-05-08 19:49 | 5.19068 | 100.28485 | 4117 ft | 238 kts | 155° |
| 2026-05-08 19:49 | 5.17532 | 100.29175 | 4637 ft | 244 kts | 156° |
| 2026-05-08 19:49 | 5.15978 | 100.29852 | 5336 ft | 243 kts | 156° |
| 2026-05-08 19:50 | 5.14420 | 100.30517 | 5938 ft | 245 kts | 156° |
| 2026-05-08 19:50 | 5.12824 | 100.31187 | 6448 ft | 251 kts | 157° |
| 2026-05-08 19:50 | 5.11194 | 100.31865 | 6953 ft | 257 kts | 157° |
| 2026-05-08 19:50 | 5.09522 | 100.32557 | 7460 ft | 263 kts | 157° |
| 2026-05-08 19:51 | 5.07812 | 100.33263 | 7976 ft | 269 kts | 157° |
| 2026-05-08 19:51 | 5.06179 | 100.34189 | 8472 ft | 274 kts | 135° |
| 2026-05-08 19:51 | 5.05139 | 100.35779 | 9015 ft | 277 kts | 109° |
| 2026-05-08 19:51 | 5.04665 | 100.37665 | 9564 ft | 281 kts | 102° |
| 2026-05-08 19:52 | 5.04295 | 100.39601 | 10060 ft | 283 kts | 101° |
| 2026-05-08 19:52 | 5.03940 | 100.41560 | 10554 ft | 288 kts | 101° |
| 2026-05-08 19:52 | 5.03575 | 100.43561 | 11053 ft | 294 kts | 101° |
| 2026-05-08 19:52 | 5.03197 | 100.45595 | 11566 ft | 300 kts | 101° |
| 2026-05-08 19:53 | 5.02812 | 100.47640 | 12037 ft | 307 kts | 101° |
| 2026-05-08 19:53 | 5.02405 | 100.49770 | 12493 ft | 315 kts | 101° |
| 2026-05-08 19:53 | 5.01986 | 100.51952 | 12955 ft | 322 kts | 101° |
| 2026-05-08 19:53 | 5.01556 | 100.54181 | 13423 ft | 330 kts | 101° |
| 2026-05-08 19:54 | 5.01114 | 100.56464 | 13860 ft | 337 kts | 101° |
| 2026-05-08 19:54 | 5.00662 | 100.58793 | 14264 ft | 344 kts | 101° |
| 2026-05-08 19:54 | 5.00201 | 100.61167 | 14683 ft | 351 kts | 101° |
| 2026-05-08 19:54 | 4.99730 | 100.63593 | 15060 ft | 358 kts | 101° |
| 2026-05-08 19:55 | 4.99249 | 100.66067 | 15440 ft | 365 kts | 101° |
| 2026-05-08 19:55 | 4.98758 | 100.68592 | 15831 ft | 371 kts | 101° |
| 2026-05-08 19:55 | 4.98261 | 100.71152 | 16219 ft | 377 kts | 101° |
| 2026-05-08 19:55 | 4.97755 | 100.73752 | 16613 ft | 382 kts | 101° |
| 2026-05-08 19:56 | 4.97062 | 100.76331 | 16984 ft | 387 kts | 115° |
| 2026-05-08 19:56 | 4.95456 | 100.78498 | 17398 ft | 391 kts | 137° |
| 2026-05-08 19:56 | 4.93214 | 100.80059 | 17811 ft | 397 kts | 153° |
| 2026-05-08 19:56 | 4.90624 | 100.81056 | 18225 ft | 399 kts | 154° |
| 2026-05-08 19:57 | 4.88363 | 100.82642 | 18555 ft | 399 kts | 134° |
| 2026-05-08 19:57 | 4.86221 | 100.84408 | 18899 ft | 403 kts | 150° |
| 2026-05-08 19:57 | 4.83592 | 100.85410 | 19297 ft | 407 kts | 165° |
| 2026-05-08 19:57 | 4.80795 | 100.85912 | 19652 ft | 410 kts | 170° |
| 2026-05-08 19:58 | 4.77949 | 100.86285 | 19984 ft | 413 kts | 171° |
| 2026-05-08 19:58 | 4.75082 | 100.86601 | 20319 ft | 416 kts | 172° |
| 2026-05-08 19:58 | 4.72183 | 100.86874 | 20661 ft | 419 kts | 173° |
| 2026-05-08 19:58 | 4.69273 | 100.87137 | 21016 ft | 421 kts | 173° |
| 2026-05-08 19:59 | 4.66392 | 100.87403 | 21360 ft | 422 kts | 173° |
| 2026-05-08 19:59 | 4.63456 | 100.87681 | 21710 ft | 424 kts | 173° |
| 2026-05-08 19:59 | 4.60512 | 100.87966 | 22064 ft | 425 kts | 172° |
| 2026-05-08 19:59 | 4.57560 | 100.88255 | 22422 ft | 426 kts | 172° |
| 2026-05-08 20:00 | 4.54602 | 100.88546 | 22789 ft | 427 kts | 172° |
| 2026-05-08 20:00 | 4.51641 | 100.88837 | 23161 ft | 428 kts | 172° |
| 2026-05-08 20:00 | 4.48675 | 100.89131 | 23523 ft | 428 kts | 171° |
| 2026-05-08 20:00 | 4.45761 | 100.89692 | 23798 ft | 427 kts | 162° |
| 2026-05-08 20:01 | 4.42976 | 100.90707 | 24066 ft | 426 kts | 153° |
| 2026-05-08 20:01 | 4.40304 | 100.92002 | 24352 ft | 427 kts | 152° |
| 2026-05-08 20:01 | 4.37640 | 100.93330 | 24613 ft | 428 kts | 152° |
| 2026-05-08 20:01 | 4.34970 | 100.94667 | 24878 ft | 430 kts | 152° |
| 2026-05-08 20:02 | 4.32286 | 100.96003 | 25122 ft | 432 kts | 152° |
| 2026-05-08 20:02 | 4.29582 | 100.97339 | 25372 ft | 433 kts | 152° |
| 2026-05-08 20:02 | 4.26906 | 100.98651 | 25627 ft | 435 kts | 152° |
| 2026-05-08 20:02 | 4.24145 | 100.99999 | 25883 ft | 436 kts | 152° |
| 2026-05-08 20:03 | 4.21451 | 101.01313 | 26133 ft | 438 kts | 152° |
| 2026-05-08 20:03 | 4.18707 | 101.02648 | 26380 ft | 439 kts | 152° |
| 2026-05-08 20:03 | 4.15954 | 101.03988 | 26646 ft | 440 kts | 152° |
| 2026-05-08 20:03 | 4.13199 | 101.05329 | 26917 ft | 441 kts | 152° |
| 2026-05-08 20:04 | 4.10440 | 101.06672 | 27173 ft | 442 kts | 152° |
| 2026-05-08 20:04 | 4.07673 | 101.08019 | 27438 ft | 442 kts | 152° |
| 2026-05-08 20:04 | 4.04905 | 101.09367 | 27703 ft | 443 kts | 152° |
| 2026-05-08 20:04 | 4.02128 | 101.10719 | 27978 ft | 444 kts | 152° |
| 2026-05-08 20:05 | 3.99346 | 101.12073 | 28250 ft | 444 kts | 152° |
| 2026-05-08 20:05 | 3.96564 | 101.13428 | 28526 ft | 445 kts | 152° |
| 2026-05-08 20:05 | 3.93773 | 101.14787 | 28805 ft | 445 kts | 152° |
| 2026-05-08 20:05 | 3.90991 | 101.16141 | 29087 ft | 445 kts | 152° |
| 2026-05-08 20:06 | 3.88203 | 101.17498 | 29372 ft | 446 kts | 152° |
| 2026-05-08 20:06 | 3.85415 | 101.18855 | 29654 ft | 446 kts | 152° |
| 2026-05-08 20:06 | 3.82620 | 101.20215 | 29938 ft | 446 kts | 152° |
| 2026-05-08 20:06 | 3.79827 | 101.21574 | 30184 ft | 446 kts | 152° |
| 2026-05-08 20:07 | 3.77045 | 101.22928 | 30430 ft | 446 kts | 152° |
| 2026-05-08 20:07 | 3.74270 | 101.24317 | 30682 ft | 445 kts | 151° |
| 2026-05-08 20:07 | 3.71519 | 101.25744 | 30929 ft | 445 kts | 150° |
| 2026-05-08 20:07 | 3.68776 | 101.27187 | 31180 ft | 445 kts | 150° |
| 2026-05-08 20:08 | 3.66039 | 101.28628 | 31434 ft | 444 kts | 150° |
| 2026-05-08 20:08 | 3.63300 | 101.30065 | 31689 ft | 444 kts | 150° |
| 2026-05-08 20:08 | 3.60598 | 101.31479 | 31945 ft | 444 kts | 150° |
| 2026-05-08 20:08 | 3.57858 | 101.32907 | 32207 ft | 443 kts | 150° |
| 2026-05-08 20:09 | 3.55123 | 101.34331 | 32469 ft | 443 kts | 150° |
| 2026-05-08 20:09 | 3.52395 | 101.35750 | 32736 ft | 442 kts | 150° |
| 2026-05-08 20:09 | 3.49668 | 101.37168 | 33001 ft | 441 kts | 151° |
| 2026-05-08 20:09 | 3.46940 | 101.38587 | 33223 ft | 442 kts | 151° |
| 2026-05-08 20:10 | 3.44214 | 101.40005 | 33447 ft | 442 kts | 151° |
| 2026-05-08 20:10 | 3.41478 | 101.41428 | 33678 ft | 442 kts | 151° |
| 2026-05-08 20:10 | 3.38742 | 101.42852 | 33901 ft | 443 kts | 151° |
| 2026-05-08 20:10 | 3.36013 | 101.44272 | 34099 ft | 443 kts | 151° |
| 2026-05-08 20:11 | 3.33275 | 101.45695 | 34296 ft | 443 kts | 151° |
| 2026-05-08 20:11 | 3.30534 | 101.47087 | 34496 ft | 443 kts | 153° |
| 2026-05-08 20:11 | 3.27752 | 101.48394 | 34706 ft | 443 kts | 154° |
| 2026-05-08 20:11 | 3.24932 | 101.49672 | 34903 ft | 443 kts | 154° |
| 2026-05-08 20:12 | 3.22119 | 101.50936 | 35105 ft | 443 kts | 154° |
| 2026-05-08 20:12 | 3.19310 | 101.52205 | 35311 ft | 442 kts | 154° |
| 2026-05-08 20:12 | 3.16552 | 101.53459 | 35508 ft | 442 kts | 153° |
| 2026-05-08 20:12 | 3.13754 | 101.54740 | 35722 ft | 441 kts | 153° |
| 2026-05-08 20:13 | 3.10981 | 101.56015 | 35929 ft | 440 kts | 153° |
| 2026-05-08 20:13 | 3.08205 | 101.57295 | 36137 ft | 439 kts | 153° |
| 2026-05-08 20:13 | 3.05430 | 101.58575 | 36308 ft | 439 kts | 153° |
| 2026-05-08 20:13 | 3.02661 | 101.59852 | 36475 ft | 439 kts | 153° |
| 2026-05-08 20:14 | 2.99877 | 101.61136 | 36643 ft | 439 kts | 153° |
| 2026-05-08 20:14 | 2.97109 | 101.62412 | 36793 ft | 439 kts | 153° |
| 2026-05-08 20:14 | 2.91536 | 101.64981 | 36839 ft | 444 kts | 153° |
| 2026-05-08 20:15 | 2.85885 | 101.67586 | 36843 ft | 450 kts | 153° |
| 2026-05-08 20:15 | 2.80163 | 101.70223 | 36842 ft | 455 kts | 153° |
| 2026-05-08 20:16 | 2.74368 | 101.72893 | 36840 ft | 461 kts | 153° |
| 2026-05-08 20:16 | 2.68532 | 101.75645 | 36837 ft | 466 kts | 151° |
| 2026-05-08 20:17 | 2.62691 | 101.78520 | 36839 ft | 470 kts | 151° |
| 2026-05-08 20:17 | 2.56853 | 101.81416 | 36835 ft | 471 kts | 147° |
| 2026-05-08 20:18 | 2.51761 | 101.85447 | 36836 ft | 465 kts | 129° |
| 2026-05-08 20:18 | 2.47859 | 101.90477 | 36837 ft | 453 kts | 123° |
| 2026-05-08 20:19 | 2.44135 | 101.95545 | 36849 ft | 450 kts | 123° |
| 2026-05-08 20:19 | 2.40408 | 102.00557 | 36853 ft | 449 kts | 124° |
| 2026-05-08 20:20 | 2.36659 | 102.05552 | 36854 ft | 448 kts | 124° |
| 2026-05-08 20:20 | 2.32908 | 102.10534 | 36862 ft | 448 kts | 124° |
| 2026-05-08 20:21 | 2.29155 | 102.15520 | 36860 ft | 449 kts | 124° |
| 2026-05-08 20:21 | 2.25397 | 102.20513 | 36865 ft | 450 kts | 124° |
| 2026-05-08 20:22 | 2.21620 | 102.25532 | 36862 ft | 452 kts | 124° |
| 2026-05-08 20:22 | 2.18477 | 102.29708 | 36859 ft | 453 kts | 124° |
| 2026-05-08 20:23 | 2.14072 | 102.35560 | 36859 ft | 454 kts | 124° |
| 2026-05-08 20:23 | 2.10316 | 102.40549 | 36586 ft | 457 kts | 125° |
| 2026-05-08 20:24 | 2.08407 | 102.43086 | 36347 ft | 455 kts | 125° |
| 2026-05-08 20:24 | 2.06512 | 102.45603 | 36094 ft | 451 kts | 125° |
| 2026-05-08 20:24 | 2.04629 | 102.48104 | 35806 ft | 450 kts | 125° |
| 2026-05-08 20:24 | 2.02745 | 102.50606 | 35527 ft | 450 kts | 125° |
| 2026-05-08 20:25 | 2.00864 | 102.53105 | 35220 ft | 451 kts | 125° |
| 2026-05-08 20:25 | 1.98973 | 102.55617 | 34917 ft | 451 kts | 125° |
| 2026-05-08 20:25 | 1.97086 | 102.58124 | 34631 ft | 451 kts | 125° |
| 2026-05-08 20:25 | 1.95198 | 102.60632 | 34343 ft | 452 kts | 126° |
| 2026-05-08 20:26 | 1.93313 | 102.63137 | 34051 ft | 450 kts | 126° |
| 2026-05-08 20:26 | 1.91438 | 102.65628 | 33752 ft | 445 kts | 126° |
| 2026-05-08 20:26 | 1.89584 | 102.68091 | 33411 ft | 441 kts | 126° |
| 2026-05-08 20:26 | 1.87755 | 102.70520 | 33068 ft | 435 kts | 126° |
| 2026-05-08 20:27 | 1.85948 | 102.72922 | 32734 ft | 430 kts | 126° |
| 2026-05-08 20:27 | 1.84162 | 102.75296 | 32356 ft | 426 kts | 126° |
| 2026-05-08 20:27 | 1.82384 | 102.77658 | 31997 ft | 424 kts | 126° |
| 2026-05-08 20:27 | 1.80612 | 102.80014 | 31644 ft | 423 kts | 126° |
| 2026-05-08 20:28 | 1.78876 | 102.82321 | 31288 ft | 418 kts | 126° |
| 2026-05-08 20:28 | 1.77132 | 102.84638 | 30937 ft | 415 kts | 126° |
| 2026-05-08 20:28 | 1.75403 | 102.86935 | 30592 ft | 412 kts | 126° |
| 2026-05-08 20:28 | 1.73705 | 102.89232 | 30246 ft | 410 kts | 123° |
| 2026-05-08 20:29 | 1.72278 | 102.91682 | 29906 ft | 407 kts | 117° |
| 2026-05-08 20:29 | 1.70962 | 102.94175 | 29509 ft | 404 kts | 117° |
| 2026-05-08 20:29 | 1.69667 | 102.96659 | 29123 ft | 402 kts | 117° |
| 2026-05-08 20:29 | 1.68368 | 102.99135 | 28741 ft | 401 kts | 117° |
| 2026-05-08 20:30 | 1.67063 | 103.01599 | 28364 ft | 401 kts | 117° |
| 2026-05-08 20:30 | 1.65751 | 103.04056 | 27989 ft | 400 kts | 117° |
| 2026-05-08 20:30 | 1.64440 | 103.06505 | 27622 ft | 399 kts | 117° |
| 2026-05-08 20:30 | 1.63126 | 103.08935 | 27251 ft | 396 kts | 120° |
| 2026-05-08 20:31 | 1.61440 | 103.11097 | 26863 ft | 394 kts | 135° |
| 2026-05-08 20:31 | 1.59304 | 103.12796 | 26518 ft | 392 kts | 148° |
| 2026-05-08 20:31 | 1.56860 | 103.13979 | 26172 ft | 390 kts | 156° |
| 2026-05-08 20:31 | 1.54347 | 103.14970 | 25826 ft | 387 kts | 158° |
| 2026-05-08 20:32 | 1.51837 | 103.15931 | 25479 ft | 384 kts | 158° |
| 2026-05-08 20:32 | 1.50190 | 103.16562 | 25254 ft | 382 kts | 157° |
| 2026-05-08 20:32 | 1.47718 | 103.17520 | 24915 ft | 380 kts | 157° |
| 2026-05-08 20:32 | 1.45268 | 103.18481 | 24581 ft | 377 kts | 156° |
| 2026-05-08 20:33 | 1.42050 | 103.19757 | 24138 ft | 374 kts | 156° |
| 2026-05-08 20:33 | 1.39645 | 103.20715 | 23816 ft | 372 kts | 156° |
| 2026-05-08 20:33 | 1.38024 | 103.21361 | 23596 ft | 370 kts | 156° |
| 2026-05-08 20:33 | 1.34869 | 103.22621 | 23125 ft | 367 kts | 156° |
| 2026-05-08 20:34 | 1.33268 | 103.23260 | 22862 ft | 366 kts | 156° |
| 2026-05-08 20:34 | 1.30906 | 103.24203 | 22432 ft | 365 kts | 156° |
| 2026-05-08 20:34 | 1.26220 | 103.26072 | 21599 ft | 364 kts | 156° |
| 2026-05-08 20:35 | 1.23895 | 103.27065 | 21176 ft | 362 kts | 152° |
| 2026-05-08 20:35 | 1.21698 | 103.28262 | 20771 ft | 357 kts | 148° |
| 2026-05-08 20:35 | 1.19581 | 103.29524 | 20365 ft | 352 kts | 147° |
| 2026-05-08 20:35 | 1.17502 | 103.30780 | 19956 ft | 345 kts | 148° |
| 2026-05-08 20:36 | 1.15462 | 103.31998 | 19562 ft | 339 kts | 148° |
| 2026-05-08 20:36 | 1.13439 | 103.33190 | 19171 ft | 334 kts | 148° |
| 2026-05-08 20:36 | 1.11450 | 103.34350 | 18783 ft | 328 kts | 149° |
| 2026-05-08 20:36 | 1.09492 | 103.35486 | 18403 ft | 323 kts | 149° |
| 2026-05-08 20:37 | 1.07557 | 103.36604 | 18009 ft | 319 kts | 149° |
| 2026-05-08 20:37 | 1.05644 | 103.37708 | 17575 ft | 315 kts | 149° |
| 2026-05-08 20:37 | 1.03763 | 103.38794 | 17152 ft | 311 kts | 149° |
| 2026-05-08 20:37 | 1.01909 | 103.39863 | 16814 ft | 304 kts | 149° |
| 2026-05-08 20:38 | 1.00093 | 103.40911 | 16487 ft | 298 kts | 149° |
| 2026-05-08 20:38 | 0.98477 | 103.42148 | 16127 ft | 290 kts | 127° |
| 2026-05-08 20:38 | 0.97544 | 103.43890 | 15835 ft | 283 kts | 105° |
| 2026-05-08 20:38 | 0.97238 | 103.45802 | 15554 ft | 283 kts | 95° |
| 2026-05-08 20:39 | 0.97098 | 103.47775 | 15257 ft | 286 kts | 94° |
| 2026-05-08 20:39 | 0.96966 | 103.49779 | 14965 ft | 289 kts | 94° |
| 2026-05-08 20:39 | 0.96822 | 103.51779 | 14665 ft | 289 kts | 94° |
| 2026-05-08 20:39 | 0.96667 | 103.53785 | 14369 ft | 289 kts | 94° |
| 2026-05-08 20:40 | 0.96509 | 103.55782 | 14075 ft | 289 kts | 95° |
| 2026-05-08 20:40 | 0.96444 | 103.57787 | 13773 ft | 289 kts | 85° |
| 2026-05-08 20:40 | 0.96687 | 103.59776 | 13483 ft | 288 kts | 81° |
| 2026-05-08 20:40 | 0.96998 | 103.61684 | 13156 ft | 288 kts | 81° |
| 2026-05-08 20:41 | 0.97317 | 103.63661 | 12895 ft | 286 kts | 81° |
| 2026-05-08 20:41 | 0.97613 | 103.65616 | 12654 ft | 283 kts | 82° |
| 2026-05-08 20:41 | 0.97892 | 103.67552 | 12411 ft | 280 kts | 82° |
| 2026-05-08 20:41 | 0.98157 | 103.69438 | 12179 ft | 277 kts | 82° |
| 2026-05-08 20:42 | 0.98422 | 103.71333 | 11944 ft | 274 kts | 82° |
| 2026-05-08 20:42 | 0.98684 | 103.73209 | 11719 ft | 271 kts | 82° |
| 2026-05-08 20:42 | 0.98912 | 103.74839 | 11526 ft | 269 kts | 82° |
| 2026-05-08 20:42 | 0.99145 | 103.76508 | 11328 ft | 266 kts | 82° |
| 2026-05-08 20:43 | 0.99394 | 103.78289 | 11118 ft | 264 kts | 82° |
| 2026-05-08 20:43 | 0.99647 | 103.80100 | 10895 ft | 262 kts | 82° |
| 2026-05-08 20:43 | 0.99899 | 103.81901 | 10695 ft | 262 kts | 82° |
| 2026-05-08 20:43 | 1.00151 | 103.83705 | 10496 ft | 264 kts | 82° |
| 2026-05-08 20:44 | 1.00399 | 103.85532 | 10301 ft | 266 kts | 82° |
| 2026-05-08 20:44 | 1.00641 | 103.87375 | 10100 ft | 267 kts | 82° |
| 2026-05-08 20:44 | 1.00881 | 103.89215 | 9892 ft | 267 kts | 82° |
| 2026-05-08 20:44 | 1.01122 | 103.91048 | 9689 ft | 267 kts | 82° |
| 2026-05-08 20:45 | 1.01363 | 103.92886 | 9457 ft | 266 kts | 82° |
| 2026-05-08 20:45 | 1.01605 | 103.94721 | 9232 ft | 266 kts | 82° |
| 2026-05-08 20:45 | 1.01884 | 103.96539 | 8996 ft | 265 kts | 73° |
| 2026-05-08 20:45 | 1.02743 | 103.98144 | 8779 ft | 261 kts | 54° |
| 2026-05-08 20:46 | 1.03809 | 103.99608 | 8560 ft | 260 kts | 53° |
| 2026-05-08 20:46 | 1.04866 | 104.01052 | 8345 ft | 259 kts | 53° |
| 2026-05-08 20:46 | 1.05928 | 104.02507 | 8119 ft | 258 kts | 53° |
| 2026-05-08 20:46 | 1.06981 | 104.03955 | 7905 ft | 257 kts | 53° |
| 2026-05-08 20:47 | 1.08027 | 104.05398 | 7692 ft | 256 kts | 54° |
| 2026-05-08 20:47 | 1.09068 | 104.06837 | 7462 ft | 255 kts | 54° |
| 2026-05-08 20:47 | 1.10105 | 104.08273 | 7258 ft | 254 kts | 54° |
| 2026-05-08 20:47 | 1.11137 | 104.09703 | 7047 ft | 253 kts | 54° |
| 2026-05-08 20:48 | 1.12164 | 104.11125 | 6837 ft | 252 kts | 54° |
| 2026-05-08 20:48 | 1.13193 | 104.12545 | 6627 ft | 251 kts | 51° |
| 2026-05-08 20:48 | 1.14523 | 104.13633 | 6393 ft | 248 kts | 24° |
| 2026-05-08 20:48 | 1.16101 | 104.14314 | 6206 ft | 246 kts | 22° |
| 2026-05-08 20:49 | 1.17232 | 104.14787 | 6055 ft | 246 kts | 22° |
| 2026-05-08 20:49 | 1.18815 | 104.15451 | 5835 ft | 246 kts | 22° |
| 2026-05-08 20:49 | 1.20393 | 104.16116 | 5622 ft | 246 kts | 22° |
| 2026-05-08 20:49 | 1.21971 | 104.16783 | 5400 ft | 246 kts | 22° |
| 2026-05-08 20:50 | 1.23547 | 104.17451 | 5182 ft | 246 kts | 22° |
| 2026-05-08 20:50 | 1.25123 | 104.18121 | 4973 ft | 246 kts | 22° |
| 2026-05-08 20:50 | 1.26696 | 104.18791 | 4763 ft | 245 kts | 22° |
| 2026-05-08 20:50 | 1.28243 | 104.19450 | 4540 ft | 243 kts | 22° |
| 2026-05-08 20:51 | 1.29793 | 104.20111 | 4318 ft | 241 kts | 22° |
| 2026-05-08 20:51 | 1.31330 | 104.20765 | 4107 ft | 238 kts | 22° |
| 2026-05-08 20:51 | 1.32877 | 104.21230 | 3982 ft | 229 kts | 359° |
| 2026-05-08 20:51 | 1.34415 | 104.21025 | 3885 ft | 219 kts | 347° |
| 2026-05-08 20:52 | 1.35870 | 104.20710 | 3799 ft | 208 kts | 347° |
| 2026-05-08 20:52 | 1.37244 | 104.20409 | 3681 ft | 197 kts | 347° |
| 2026-05-08 20:52 | 1.38578 | 104.20118 | 3581 ft | 196 kts | 347° |
| 2026-05-08 20:52 | 1.39908 | 104.19828 | 3446 ft | 195 kts | 347° |
| 2026-05-08 20:53 | 1.41236 | 104.19541 | 3333 ft | 194 kts | 347° |
| 2026-05-08 20:53 | 1.42543 | 104.19258 | 3256 ft | 191 kts | 347° |
| 2026-05-08 20:53 | 1.43835 | 104.18980 | 3190 ft | 189 kts | 347° |
| 2026-05-08 20:53 | 1.45136 | 104.18700 | 3137 ft | 193 kts | 347° |
| 2026-05-08 20:54 | 1.46460 | 104.18416 | 3074 ft | 196 kts | 347° |
| 2026-05-08 20:54 | 1.47791 | 104.18130 | 2994 ft | 195 kts | 347° |
| 2026-05-08 20:54 | 1.49114 | 104.17846 | 2926 ft | 193 kts | 347° |
| 2026-05-08 20:54 | 1.50420 | 104.17562 | 2856 ft | 193 kts | 345° |
| 2026-05-08 20:55 | 1.51535 | 104.16860 | 2755 ft | 193 kts | 305° |
| 2026-05-08 20:55 | 1.51902 | 104.15609 | 2689 ft | 192 kts | 265° |
| 2026-05-08 20:55 | 1.51679 | 104.14293 | 2616 ft | 194 kts | 257° |
| 2026-05-08 20:55 | 1.51374 | 104.12975 | 2529 ft | 192 kts | 257° |
| 2026-05-08 20:56 | 1.51079 | 104.11707 | 2504 ft | 190 kts | 257° |
| 2026-05-08 20:56 | 1.50782 | 104.10408 | 2520 ft | 191 kts | 257° |
| 2026-05-08 20:56 | 1.50488 | 104.09113 | 2508 ft | 191 kts | 257° |
| 2026-05-08 20:56 | 1.49935 | 104.07955 | 2483 ft | 191 kts | 221° |
| 2026-05-08 20:57 | 1.48851 | 104.07195 | 2523 ft | 193 kts | 218° |
| 2026-05-08 20:57 | 1.47862 | 104.06242 | 2330 ft | 199 kts | 228° |
| 2026-05-08 20:57 | 1.46982 | 104.05216 | 2089 ft | 193 kts | 231° |
| 2026-05-08 20:57 | 1.46169 | 104.04179 | 1941 ft | 183 kts | 233° |
| 2026-05-08 20:58 | 1.45463 | 104.03193 | 1800 ft | 173 kts | 236° |
| 2026-05-08 20:58 | 1.44753 | 104.02240 | 1530 ft | 166 kts | 229° |
| 2026-05-08 20:58 | 1.43928 | 104.01482 | 1280 ft | 158 kts | 213° |
| 2026-05-08 20:58 | 1.42940 | 104.01009 | 1065 ft | 158 kts | 201° |
| 2026-05-08 20:59 | 1.41951 | 104.00639 | 869 ft | 158 kts | 200° |
| 2026-05-08 20:59 | 1.40932 | 104.00254 | 660 ft | 157 kts | 201° |
| 2026-05-08 20:59 | 1.39916 | 103.99904 | 456 ft | 154 kts | 202° |
| 2026-05-08 20:59 | 1.38958 | 103.99476 | 261 ft | 152 kts | 205° |
| 2026-05-08 21:00 | 1.38035 | 103.99060 | 123 ft | 148 kts | 202° |
| 2026-05-08 21:00 | 1.37060 | 103.98647 | 38 ft | 144 kts | 203° |
| 2026-05-08 21:00 | 1.36194 | 103.98280 | 30 ft | 124 kts | 202° |
| 2026-05-08 21:00 | 1.35704 | 103.98078 | 32 ft | 34 kts | 202° |
| 2026-05-08 21:01 | 1.35483 | 103.97987 | 33 ft | 35 kts | 202° |
| 2026-05-08 21:01 | 1.35267 | 103.97898 | 34 ft | 32 kts | 202° |
| 2026-05-08 21:01 | 1.35069 | 103.97823 | 33 ft | 26 kts | 186° |
| 2026-05-08 21:01 | 1.34971 | 103.97910 | 32 ft | 19 kts | 109° |
| 2026-05-08 21:02 | 1.35036 | 103.98002 | 33 ft | 18 kts | 23° |
| 2026-05-08 21:02 | 1.35151 | 103.98052 | 31 ft | 18 kts | 23° |
| 2026-05-08 21:02 | 1.35266 | 103.98101 | 31 ft | 19 kts | 23° |
| 2026-05-08 21:02 | 1.35404 | 103.98159 | 32 ft | 23 kts | 22° |
| 2026-05-08 21:03 | 1.35551 | 103.98221 | 32 ft | 22 kts | 22° |
| 2026-05-08 21:03 | 1.35689 | 103.98277 | 31 ft | 20 kts | 22° |
| 2026-05-08 21:03 | 1.35813 | 103.98330 | 32 ft | 19 kts | 23° |
| 2026-05-08 21:03 | 1.35928 | 103.98378 | 32 ft | 17 kts | 23° |
| 2026-05-08 21:04 | 1.36060 | 103.98434 | 32 ft | 23 kts | 23° |
| 2026-05-08 21:04 | 1.36205 | 103.98496 | 32 ft | 22 kts | 23° |
| 2026-05-08 21:04 | 1.36340 | 103.98554 | 30 ft | 20 kts | 23° |
| 2026-05-08 21:04 | 1.36463 | 103.98606 | 32 ft | 18 kts | 23° |
| 2026-05-08 21:05 | 1.36574 | 103.98653 | 32 ft | 17 kts | 23° |
| 2026-05-08 21:05 | 1.36665 | 103.98692 | 30 ft | 16 kts | 23° |
| 2026-05-08 21:05 | 1.36769 | 103.98736 | 32 ft | 16 kts | 23° |
| 2026-05-08 21:05 | 1.36817 | 103.98818 | 32 ft | 15 kts | 105° |
| 2026-05-08 21:06 | 1.36779 | 103.98920 | 30 ft | 16 kts | 111° |
| 2026-05-08 21:06 | 1.36738 | 103.99021 | 30 ft | 15 kts | 112° |
| 2026-05-08 21:06 | 1.36693 | 103.99104 | 32 ft | 13 kts | 138° |
| 2026-05-08 21:06 | 1.36622 | 103.99118 | 32 ft | 9 kts | 189° |
| 2026-05-08 21:07 | 1.36603 | 103.99103 | 32 ft | 0 kts | 250° |
| 2026-05-08 21:07 | 1.36603 | 103.99101 | 32 ft | 0 kts | 256° |
| 2026-05-08 21:07 | 1.36603 | 103.99098 | 32 ft | 0 kts | 263° |
| 2026-05-08 21:07 | 1.36603 | 103.99095 | 32 ft | 0 kts | 267° |
| 2026-05-08 21:08 | 1.36603 | 103.99092 | 32 ft | 0 kts | 269° |
| 2026-05-08 21:08 | 1.36603 | 103.99089 | 32 ft | 0 kts | 269° |
| 2026-05-08 21:08 | 1.36603 | 103.99086 | 32 ft | 0 kts | 269° |
| 2026-05-08 21:08 | 1.36603 | 103.99084 | 32 ft | 0 kts | 269° |
| 2026-05-08 21:09 | 1.36603 | 103.99082 | 32 ft | 0 kts | 269° |
| 2026-05-08 21:09 | 1.36603 | 103.99080 | 32 ft | 0 kts | 269° |
| 2026-05-08 21:09 | 1.36603 | 103.99078 | 32 ft | 0 kts | 269° |
| 2026-05-08 21:09 | 1.36603 | 103.99076 | 32 ft | 0 kts | 269° |
| 2026-05-08 21:10 | 1.36603 | 103.99073 | 32 ft | 0 kts | 269° |
| 2026-05-08 21:10 | 1.36603 | 103.99071 | 32 ft | 0 kts | 268° |
| 2026-05-08 21:10 | 1.36603 | 103.99068 | 32 ft | 1 kts | 267° |
| 2026-05-08 21:10 | 1.36602 | 103.99057 | 32 ft | 5 kts | 265° |
| 2026-05-08 21:11 | 1.36601 | 103.99048 | 32 ft | 0 kts | 263° |